Atria — FICZ — position and weather

sailwx.info

Track history (hours):
 
Tides and Currents Weather Stations Pressure Air Temp Water Temp Dewpoint Dewpoint Depression Visibility Wind Speed Wind Dir Waves Ship Positions

Atria

Last reported at 2018-Feb-04 23:49 UTC. Time now 2018-Feb-20 05:46 UTC.
Position N 39°39' E 023°59'.
Warning: this ship's position is 15 days out of date.

Length 184 m; draft 7.4 m.

Type: Tanker. MMSI: 226099000.

Date/timePositionNaut miles runAvg speedWind from/ knotsBaromVisibWave heightAir tempDewpointWater temp
2018-Feb-04 23:49N 39°39' E 023°59'513.3
2018-Feb-04 23:25N 39°38' E 024°06'512.9
2018-Feb-04 23:00N 39°36' E 024°12'11211.1
2018-Feb-04 12:59N 37°44' E 024°18'1012.8
2018-Feb-04 12:09N 37°37' E 024°09'211.8
2018-Feb-04 11:59N 37°36' E 024°06'812.0
2018-Feb-04 11:20N 37°35' E 023°57'1511.6
2018-Feb-04 10:00N 37°43' E 023°41'1111.3
2018-Feb-04 09:00N 37°52' E 023°31'0 0.9
2018-Feb-04 08:29N 37°52' E 023°31'0 0.1
2018-Feb-04 07:59N 37°52' E 023°31'0 0.0
2018-Feb-04 07:29N 37°52' E 023°31'0 0.0
2018-Feb-04 06:59N 37°52' E 023°31'0 0.1
2018-Feb-04 06:29N 37°52' E 023°31'0 0.1
2018-Feb-04 05:59N 37°52' E 023°31'0 0.1
2018-Feb-04 05:29N 37°52' E 023°31'0 0.1
2018-Feb-04 04:59N 37°52' E 023°31'0 0.0
2018-Feb-04 04:29N 37°52' E 023°31'0 0.1
2018-Feb-04 03:59N 37°52' E 023°31'0 0.1
2018-Feb-04 03:29N 37°52' E 023°31'0 0.0
2018-Feb-04 02:59N 37°52' E 023°31'0 0.0
2018-Feb-04 02:29N 37°52' E 023°31'0 0.1
2018-Feb-04 01:59N 37°52' E 023°31'0 0.1
2018-Feb-04 01:29N 37°52' E 023°31'0 0.0
2018-Feb-04 00:59N 37°52' E 023°31'0 0.1
2018-Feb-04 00:29N 37°52' E 023°31'0 0.0
2018-Feb-03 23:59N 37°52' E 023°31'0 0.7
2018-Feb-03 23:30N 37°52' E 023°31'4 7.1
2018-Feb-03 23:00N 37°51' E 023°36'611.3
2018-Feb-03 22:30N 37°48' E 023°41'612.4
2018-Feb-03 22:00N 37°42' E 023°44'612.0
2018-Feb-03 21:31N 37°38' E 023°49'612.5
2018-Feb-03 21:00N 37°33' E 023°55'612.3
2018-Feb-03 20:30N 37°29' E 024°01'4111.8
2018-Feb-03 17:04N 37°14' E 024°48'112.6
2018-Feb-03 17:01N 37°14' E 024°49'1312.6
2018-Feb-03 16:00N 37°15' E 025°05'612.4
2018-Feb-03 15:31N 37°15' E 025°13'612.6
2018-Feb-03 15:00N 37°16' E 025°20'612.7
2018-Feb-03 14:30N 37°16' E 025°28'1013.1
2018-Feb-03 13:46N 37°16' E 025°41'313.2
2018-Feb-03 13:30N 37°14' E 025°45'  
2018-Jan-28 02:40N 36°26' E 014°46'213.2
2018-Jan-28 02:30N 36°27' E 014°44'713.4
2018-Jan-28 02:00N 36°29' E 014°36'713.3
2018-Jan-28 01:30N 36°32' E 014°28'30312.9
2018-Jan-27 01:58N 38°33' E 008°38'32413.0
2018-Jan-26 01:08N 41°09' E 002°28'213.9
2018-Jan-26 01:00N 41°10' E 002°26'713.7
2018-Jan-26 00:29N 41°13' E 002°17'612.7
2018-Jan-26 00:00N 41°17' E 002°11'  
Track history (hours):
 
Tides and Currents Weather Stations Pressure Air Temp Water Temp Dewpoint Dewpoint Depression Visibility Wind Speed Wind Dir Waves Ship Positions

Atria

Last reported at 2018-Feb-04 23:49 UTC. Time now 2018-Feb-20 05:46 UTC.
Position N 39°39' E 023°59'.
Warning: this ship's position is 15 days out of date.

Length 184 m; draft 7.4 m.

Type: Tanker. MMSI: 226099000.

Date/timePositionNaut miles runAvg speedWind from/ knotsBaromVisibWave heightAir tempDewpointWater temp
2018-Feb-04 23:49N 39°39' E 023°59'513.3
2018-Feb-04 23:25N 39°38' E 024°06'512.9
2018-Feb-04 23:00N 39°36' E 024°12'11211.1
2018-Feb-04 12:59N 37°44' E 024°18'1012.8
2018-Feb-04 12:09N 37°37' E 024°09'211.8
2018-Feb-04 11:59N 37°36' E 024°06'812.0
2018-Feb-04 11:20N 37°35' E 023°57'1511.6
2018-Feb-04 10:00N 37°43' E 023°41'1111.3
2018-Feb-04 09:00N 37°52' E 023°31'0 0.9
2018-Feb-04 08:29N 37°52' E 023°31'0 0.1
2018-Feb-04 07:59N 37°52' E 023°31'0 0.0
2018-Feb-04 07:29N 37°52' E 023°31'0 0.0
2018-Feb-04 06:59N 37°52' E 023°31'0 0.1
2018-Feb-04 06:29N 37°52' E 023°31'0 0.1
2018-Feb-04 05:59N 37°52' E 023°31'0 0.1
2018-Feb-04 05:29N 37°52' E 023°31'0 0.1
2018-Feb-04 04:59N 37°52' E 023°31'0 0.0
2018-Feb-04 04:29N 37°52' E 023°31'0 0.1
2018-Feb-04 03:59N 37°52' E 023°31'0 0.1
2018-Feb-04 03:29N 37°52' E 023°31'0 0.0
2018-Feb-04 02:59N 37°52' E 023°31'0 0.0
2018-Feb-04 02:29N 37°52' E 023°31'0 0.1
2018-Feb-04 01:59N 37°52' E 023°31'0 0.1
2018-Feb-04 01:29N 37°52' E 023°31'0 0.0
2018-Feb-04 00:59N 37°52' E 023°31'0 0.1
2018-Feb-04 00:29N 37°52' E 023°31'0 0.0
2018-Feb-03 23:59N 37°52' E 023°31'0 0.7
2018-Feb-03 23:30N 37°52' E 023°31'4 7.1
2018-Feb-03 23:00N 37°51' E 023°36'611.3
2018-Feb-03 22:30N 37°48' E 023°41'612.4
2018-Feb-03 22:00N 37°42' E 023°44'612.0
2018-Feb-03 21:31N 37°38' E 023°49'612.5
2018-Feb-03 21:00N 37°33' E 023°55'612.3
2018-Feb-03 20:30N 37°29' E 024°01'4111.8
2018-Feb-03 17:04N 37°14' E 024°48'112.6
2018-Feb-03 17:01N 37°14' E 024°49'1312.6
2018-Feb-03 16:00N 37°15' E 025°05'612.4
2018-Feb-03 15:31N 37°15' E 025°13'612.6
2018-Feb-03 15:00N 37°16' E 025°20'612.7
2018-Feb-03 14:30N 37°16' E 025°28'1013.1
2018-Feb-03 13:46N 37°16' E 025°41'313.2
2018-Feb-03 13:30N 37°14' E 025°45'  
2018-Jan-28 02:40N 36°26' E 014°46'213.2
2018-Jan-28 02:30N 36°27' E 014°44'713.4
2018-Jan-28 02:00N 36°29' E 014°36'713.3
2018-Jan-28 01:30N 36°32' E 014°28'30312.9
2018-Jan-27 01:58N 38°33' E 008°38'32413.0
2018-Jan-26 01:08N 41°09' E 002°28'213.9
2018-Jan-26 01:00N 41°10' E 002°26'713.7
2018-Jan-26 00:29N 41°13' E 002°17'612.7
2018-Jan-26 00:00N 41°17' E 002°11'  

Dump ship's entire track history